KK4URH Weather Reports


time (UTC)temp
C
wind
direction
speed
KPH
gust
KPH
rain 1hr
cm
rain 24hr
cm
rain mn
cm
humidity
%
barometer
mb
20211017160019 16 30 4.8 19.3 0.00 0.10 0.00 38 1017.6
20211017154509 16 79 4.8 14.5 0.00 0.10 0.00 40 1017.5
20211017153006 16 326 9.7 17.7 0.00 0.10 0.00 38 1017.5
20211017151506 15 281 8.0 17.7 0.00 0.10 0.00 38 1017.6
20211017150005 15 58 9.7 22.5 0.00 0.10 0.00 39 1017.8
20211017144503 15 290 4.8 17.7 0.00 0.10 0.00 44 1017.7
20211017141632 14 302 3.2 19.3 0.00 0.10 0.00 44 1017.6
20211017140122 14 329 4.8 14.5 0.00 0.10 0.00 47 1017.7
20211017134754 13 325 4.8 12.9 0.00 0.10 0.00 49 1017.6
20211017133103 13 279 3.2 14.5 0.00 0.10 0.00 51 1017.5
20211017131618 12 281 3.2 12.9 0.00 0.10 0.00 54 1017.4
20211017130109 11 300 3.2 16.1 0.00 0.10 0.00 56 1017.3
20211017124637 11 321 3.2 9.7 0.00 0.10 0.00 57 1017.0
20211017123107 10 316 4.8 19.3 0.00 0.10 0.00 58 1016.8
20211017121708 10 301 3.2 9.7 0.00 0.10 0.00 59 1016.7
20211017120048 9 320 3.2 6.4 0.00 0.10 0.00 61 1016.5
20211017114625 9 308 1.6 4.8 0.00 0.10 0.00 61 1016.4
20211017113127 9 90 0.0 3.2 0.00 0.10 0.00 61 1016.1
20211017111612 9 306 3.2 4.8 0.00 0.10 0.00 61 1016.0
20211017110115 10 317 0.0 6.4 0.00 0.10 0.00 60 1015.9
20211017104550 10 292 0.0 4.8 0.00 0.10 0.00 60 1015.9
20211017103053 10 284 1.6 6.4 0.00 0.10 0.00 60 1015.7
20211017101532 10 238 0.0 6.4 0.00 0.10 0.00 59 1015.5
20211017100151 10 297 0.0 4.8 0.00 0.10 0.00 59 1015.5
20211017094549 10 308 3.2 6.4 0.00 0.10 0.00 59 1015.5
20211017093030 10 300 0.0 11.3 0.00 0.10 0.00 58 1015.4
20211017091537 10 269 3.2 8.0 0.00 0.10 0.00 58 1015.3
20211017090029 11 285 3.2 9.7 0.00 0.10 0.00 58 1015.3
20211017084537 11 313 0.0 8.0 0.00 0.10 0.00 57 1015.2
20211017083044 11 298 1.6 12.9 0.00 0.10 0.00 57 1015.1
20211017081531 11 325 3.2 11.3 0.00 0.10 0.00 57 1015.1
20211017080107 11 306 3.2 12.9 0.00 0.10 0.00 57 1015.1
20211017074519 11 323 0.0 9.7 0.00 0.10 0.00 57 1015.1
20211017073019 11 308 1.6 9.7 0.00 0.10 0.00 57 1015.0
20211017071523 12 329 1.6 6.4 0.00 0.10 0.00 57 1015.1
20211017070038 12 319 1.6 14.5 0.00 0.10 0.00 56 1015.1
20211017064532 12 296 1.6 14.5 0.00 0.10 0.00 56 1015.1
20211017063010 12 316 3.2 20.9 0.00 0.10 0.00 56 1015.2
20211017061545 12 319 3.2 12.9 0.00 0.10 0.00 56 1015.1
20211017060007 12 323 1.6 9.7 0.00 0.10 0.00 57 1014.9
20211017054517 12 301 1.6 11.3 0.00 0.10 0.00 57 1014.8
20211017053004 12 308 0.0 6.4 0.00 0.10 0.00 57 1014.7
20211017051503 12 311 3.2 9.7 0.00 0.10 0.00 57 1014.5
20211017050130 13 345 3.2 11.3 0.00 0.10 0.00 57 1014.4
20211017044635 13 293 1.6 6.4 0.00 0.10 0.00 56 1014.4
20211017043140 13 313 3.2 8.0 0.00 0.10 0.00 55 1014.4
20211017041711 13 302 1.6 9.7 0.00 0.10 0.00 55 1014.4
20211017040208 13 313 1.6 8.0 0.00 0.10 0.00 54 1014.4
20211017034622 14 307 3.2 6.4 0.00 0.10 0.10 53 1014.4
20211017033141 14 299 3.2 9.7 0.00 0.10 0.10 52 1014.3
20211017031620 15 309 3.2 11.3 0.00 0.10 0.10 51 1014.1
20211017030109 15 319 4.8 12.9 0.00 0.10 0.10 51 1013.7
20211017024601 15 143 0.0 12.9 0.00 0.10 0.10 50 1013.6
20211017023119 15 290 3.2 12.9 0.00 0.10 0.10 50 1013.5
20211017021616 16 312 0.0 6.4 0.00 0.10 0.10 49 1013.3
20211017020049 16 306 4.8 9.7 0.00 0.10 0.10 47 1012.9
20211017014713 16 9 4.8 17.7 0.00 0.10 0.10 46 1012.7
20211017013051 17 70 3.2 16.1 0.00 0.10 0.10 46 1012.5
20211017011530 17 288 4.8 16.1 0.00 0.10 0.10 45 1012.4
20211017010035 17 313 4.8 12.9 0.00 0.10 0.10 44 1012.0
20211017004537 17 306 8.0 16.1 0.00 0.10 0.10 45 1011.8
20211017003028 18 280 4.8 22.5 0.00 0.10 0.10 46 1011.5
20211017001527 18 315 8.0 22.5 0.00 0.10 0.10 46 1011.3
20211017000018 18 114 1.6 20.9 0.00 0.10 0.10 47 1011.1
20211016234525 18 80 6.4 17.7 0.00 0.10 0.10 55 1010.8
20211016233015 18 324 1.6 9.7 0.00 0.10 0.10 56 1010.6
20211016231513 19 333 3.2 16.1 0.00 0.10 0.10 56 1010.0
20211016230016 19 327 1.6 17.7 0.00 0.10 0.10 56 1009.6
20211016224520 19 311 3.2 14.5 0.00 0.10 0.10 56 1009.4
20211016223012 19 265 6.4 24.1 0.00 0.10 0.10 58 1009.0
20211016221509 20 301 3.2 16.1 0.00 0.10 0.10 59 1008.4
20211016220007 20 317 4.8 25.7 0.00 0.10 0.10 58 1008.4
20211016214507 21 340 1.6 8.0 0.00 0.10 0.10 64 1007.8
20211016213008 21 350 3.2 14.5 0.00 0.10 0.10 64 1007.4
20211016211507 22 334 3.2 14.5 0.10 0.10 0.10 66 1007.3
20211016210006 21 296 0.0 4.8 0.10 0.10 0.10 72 1006.9
20211016204523 21 325 0.0 4.8 0.10 0.10 0.10 72 1006.9
20211016203006 21 327 0.0 8.0 0.10 0.10 0.10 69 1006.6
20211016201507 22 320 4.8 20.9 0.03 0.03 0.03 67 1006.3
20211016200012 25 324 8.0 40.2 0.00 0.00 0.00 58 1006.0
20211016194504 28 257 4.8 17.7 0.00 0.00 0.00 48 1005.0
20211016193000 28 284 4.8 14.5 0.00 0.00 0.00 47 1005.1
20211016191629 28 259 6.4 17.7 0.00 0.00 0.00 46 1005.1
20211016190130 28 229 4.8 14.5 0.00 0.00 0.00 46 1005.2
20211016184622 28 202 8.0 20.9 0.00 0.00 0.00 47 1005.3
20211016183142 28 286 8.0 17.7 0.00 0.00 0.00 45 1005.6
20211016181705 28 209 4.8 17.7 0.00 0.00 0.00 46 1005.6
20211016180159 28 288 11.3 19.3 0.00 0.00 0.00 45 1005.7
20211016174639 28 226 6.4 20.9 0.00 0.00 0.00 48 1005.8
20211016173118 28 278 8.0 24.1 0.00 0.00 0.00 50 1006.2
20211016171625 27 243 9.7 16.1 0.00 0.00 0.00 59 1006.7
20211016170057 27 300 6.4 17.7 0.00 0.00 0.00 60 1006.8
20211016164612 27 249 9.7 20.9 0.00 0.00 0.00 60 1007.2
20211016163039 27 243 6.4 20.9 0.00 0.00 0.00 61 1007.6
20211016161600 26 211 9.7 22.5 0.00 0.00 0.00 61 1007.7